Time,TemperatureF,DewpointF,PressureIn,WindDirection,WindDirectionDegrees,WindSpeedMPH,WindSpeedGustMPH,Humidity,HourlyPrecipIn,Conditions,Clouds,dailyrainin,SoftwareType,DateUTC
2013-05-13 00:01:00,30.9,23.3,29.83,SSW,202,6.7,17.0,73,0.00,,---,0.00,VWS V14.01,2013-05-13 04:01:00,
2013-05-13 00:05:00,31.1,23.5,29.83,SW,221,0.0,0.0,73,0.00,,---,0.00,VWS V14.01,2013-05-13 04:05:00,
2013-05-13 00:10:00,31.1,23.5,29.83,WSW,253,0.9,11.6,73,0.00,,---,0.00,VWS V14.01,2013-05-13 04:10:00,
2013-05-13 00:15:00,31.1,23.1,29.83,East,91,2.7,14.8,72,0.00,,---,0.00,VWS V14.01,2013-05-13 04:15:00,
2013-05-13 00:20:00,30.9,23.3,29.83,West,266,0.0,8.9,73,0.00,,---,0.00,VWS V14.01,2013-05-13 04:20:00,
2013-05-13 00:25:00,30.9,23.3,29.83,NNE,19,1.3,5.4,73,0.00,,---,0.00,VWS V14.01,2013-05-13 04:25:00,
2013-05-13 00:30:00,30.9,23.0,29.83,SSE,161,4.0,8.9,72,0.00,,---,0.00,VWS V14.01,2013-05-13 04:30:00,
2013-05-13 00:35:00,30.7,22.8,29.83,WSW,249,0.0,8.1,72,0.00,,---,0.00,VWS V14.01,2013-05-13 04:35:00,
2013-05-13 00:45:00,30.4,22.8,29.83,West,278,4.5,9.4,73,0.00,,---,0.00,VWS V14.01,2013-05-13 04:45:00,
2013-05-13 00:50:00,30.4,22.8,29.83,South,170,3.1,8.5,73,0.00,,---,0.00,VWS V14.01,2013-05-13 04:50:00,
2013-05-13 01:00:00,30.2,22.3,29.83,East,81,5.4,11.2,72,0.00,,---,0.00,VWS V14.01,2013-05-13 05:00:00,
2013-05-13 01:05:00,30.0,22.1,29.83,WSW,256,0.0,6.7,72,0.00,,---,0.00,VWS V14.01,2013-05-13 05:05:00,
2013-05-13 01:15:00,29.8,21.9,29.85,NW,323,2.2,8.5,72,0.00,,---,0.00,VWS V14.01,2013-05-13 05:15:00,
2013-05-13 01:20:00,29.5,21.6,29.85,SW,222,4.9,7.6,72,0.00,,---,0.00,VWS V14.01,2013-05-13 05:20:00,
2013-05-13 01:30:00,29.3,21.4,29.85,SE,142,3.1,13.0,72,0.00,,---,0.00,VWS V14.01,2013-05-13 05:30:00,
2013-05-13 01:40:00,29.7,21.8,29.85,WSW,239,0.0,12.5,72,0.00,,---,0.00,VWS V14.01,2013-05-13 05:40:00,
2013-05-13 01:45:00,29.8,21.6,29.85,SW,232,10.3,12.5,71,0.00,,---,0.00,VWS V14.01,2013-05-13 05:45:00,
2013-05-13 01:55:00,30.0,21.8,29.85,South,183,5.8,9.4,71,0.00,,---,0.00,VWS V14.01,2013-05-13 05:55:00,
2013-05-13 02:05:00,30.0,21.8,29.85,SW,223,5.4,12.1,71,0.00,,---,0.00,VWS V14.01,2013-05-13 06:05:00,
2013-05-13 02:10:00,30.0,20.8,29.85,WNW,285,12.5,12.5,68,0.00,,---,0.00,VWS V14.01,2013-05-13 06:10:00,
2013-05-13 02:20:00,30.0,20.0,29.85,SSE,166,7.2,17.9,66,0.00,,---,0.00,VWS V14.01,2013-05-13 06:20:00,
2013-05-13 02:25:00,30.0,20.0,29.85,SW,236,8.5,18.8,66,0.00,,---,0.00,VWS V14.01,2013-05-13 06:25:00,
2013-05-13 02:35:00,30.0,20.0,29.85,SW,214,10.3,12.1,66,0.00,,---,0.00,VWS V14.01,2013-05-13 06:35:00,
2013-05-13 02:45:00,29.8,20.6,29.85,SW,228,9.4,11.2,68,0.00,,---,0.00,VWS V14.01,2013-05-13 06:45:00,
2013-05-13 02:50:00,29.8,20.6,29.85,SW,219,3.6,18.3,68,0.00,,---,0.00,VWS V14.01,2013-05-13 06:50:00,
2013-05-13 03:00:00,29.8,21.6,29.85,SSW,201,3.6,18.3,71,0.00,,---,0.00,VWS V14.01,2013-05-13 07:00:00,
2013-05-13 03:05:00,29.7,20.4,29.85,West,266,12.5,18.3,68,0.00,,---,0.00,VWS V14.01,2013-05-13 07:05:00,
2013-05-13 03:15:00,29.7,20.4,29.85,WNW,292,4.9,13.9,68,0.00,,---,0.00,VWS V14.01,2013-05-13 07:15:00,
2013-05-13 03:25:00,29.8,20.6,29.85,WNW,283,5.8,13.9,68,0.00,,---,0.00,VWS V14.01,2013-05-13 07:25:00,
2013-05-13 03:30:00,29.7,19.7,29.85,NW,322,3.6,13.9,66,0.00,,---,0.00,VWS V14.01,2013-05-13 07:30:00,
2013-05-13 03:40:00,29.5,20.2,29.85,SW,236,3.6,9.8,68,0.00,,---,0.00,VWS V14.01,2013-05-13 07:40:00,
2013-05-13 03:50:00,29.5,19.5,29.85,WNW,295,11.6,17.9,66,0.00,,---,0.00,VWS V14.01,2013-05-13 07:50:00,
2013-05-13 03:55:00,29.1,19.2,29.85,SSW,197,5.8,15.2,66,0.00,,---,0.00,VWS V14.01,2013-05-13 07:55:00,
2013-05-13 04:05:00,28.6,19.7,29.85,WNW,295,0.0,12.1,69,0.00,,---,0.00,VWS V14.01,2013-05-13 08:05:00,
2013-05-13 04:15:00,28.4,19.5,29.85,NW,304,0.0,13.0,69,0.00,,---,0.00,VWS V14.01,2013-05-13 08:15:00,
2013-05-13 04:20:00,28.4,19.5,29.85,WNW,285,2.2,11.2,69,0.00,,---,0.00,VWS V14.01,2013-05-13 08:20:00,
2013-05-13 04:30:00,28.6,19.7,29.85,West,266,5.8,11.2,69,0.00,,---,0.00,VWS V14.01,2013-05-13 08:30:00,
2013-05-13 04:40:00,28.6,19.7,29.85,West,260,5.4,12.1,69,0.00,,---,0.00,VWS V14.01,2013-05-13 08:40:00,
2013-05-13 04:45:00,28.6,19.7,29.88,West,260,5.8,8.9,69,0.00,,---,0.00,VWS V14.01,2013-05-13 08:45:00,
2013-05-13 04:50:00,28.6,19.7,29.88,NW,318,3.1,9.8,69,0.00,,---,0.00,VWS V14.01,2013-05-13 08:50:00,
2013-05-13 04:55:00,28.4,19.5,29.88,WSW,239,1.3,13.9,69,0.00,,---,0.00,VWS V14.01,2013-05-13 08:55:00,
2013-05-13 05:00:00,28.4,19.5,29.88,West,259,4.9,17.0,69,0.00,,---,0.00,VWS V14.01,2013-05-13 09:00:00,
2013-05-13 05:10:00,28.2,19.4,29.88,WNW,283,0.0,11.6,69,0.00,,---,0.00,VWS V14.01,2013-05-13 09:10:00,
2013-05-13 05:15:00,28.2,20.0,29.88,WSW,240,0.4,9.4,71,0.00,,---,0.00,VWS V14.01,2013-05-13 09:15:00,
2013-05-13 05:20:00,28.0,19.9,29.88,WSW,247,4.0,16.1,71,0.00,,---,0.00,VWS V14.01,2013-05-13 09:20:00,
2013-05-13 05:25:00,27.9,19.7,29.88,WNW,294,4.0,14.3,71,0.00,,---,0.00,VWS V14.01,2013-05-13 09:25:00,
2013-05-13 05:35:00,28.0,19.9,29.88,WNW,284,8.1,14.8,71,0.00,,---,0.00,VWS V14.01,2013-05-13 09:35:00,
2013-05-13 05:45:00,28.0,19.9,29.88,WNW,284,6.7,13.0,71,0.00,,---,0.00,VWS V14.01,2013-05-13 09:45:00,
2013-05-13 05:50:00,28.0,19.9,29.88,NW,307,8.5,14.8,71,0.00,,---,0.00,VWS V14.01,2013-05-13 09:50:00,
2013-05-13 06:00:00,28.2,20.0,29.88,West,281,4.0,10.3,71,0.00,,---,0.00,VWS V14.01,2013-05-13 10:00:00,
2013-05-13 06:05:00,28.0,19.9,29.88,WSW,239,12.1,12.1,71,0.00,,---,0.00,VWS V14.01,2013-05-13 10:05:00,
2013-05-13 06:10:00,28.0,19.9,29.88,West,271,8.5,17.4,71,0.00,,---,0.00,VWS V14.01,2013-05-13 10:10:00,
2013-05-13 06:15:00,28.2,20.0,29.88,NW,309,4.9,17.0,71,0.00,,---,0.00,VWS V14.01,2013-05-13 10:15:00,
2013-05-13 06:20:00,28.2,20.0,29.88,NW,312,13.0,14.3,71,0.00,,---,0.00,VWS V14.01,2013-05-13 10:20:00,
2013-05-13 06:25:00,28.2,20.0,29.88,West,274,7.2,13.0,71,0.00,,---,0.00,VWS V14.01,2013-05-13 10:25:00,
2013-05-13 06:35:00,28.2,20.0,29.88,SW,226,10.7,14.8,71,0.00,,---,0.00,VWS V14.01,2013-05-13 10:35:00,
2013-05-13 06:40:00,28.4,20.5,29.88,West,260,13.4,14.3,72,0.00,,---,0.00,VWS V14.01,2013-05-13 10:40:00,
2013-05-13 06:50:00,28.2,20.4,29.88,West,263,2.2,14.3,72,0.00,,---,0.00,VWS V14.01,2013-05-13 10:50:00,
2013-05-13 07:00:00,28.4,20.5,29.91,SW,229,6.7,10.7,72,0.00,,---,0.00,VWS V14.01,2013-05-13 11:00:00,
2013-05-13 07:05:00,28.2,20.4,29.91,SW,225,3.6,12.1,72,0.00,,---,0.00,VWS V14.01,2013-05-13 11:05:00,
2013-05-13 07:15:00,28.2,20.4,29.91,WSW,239,6.7,12.1,72,0.00,,---,0.00,VWS V14.01,2013-05-13 11:15:00,
2013-05-13 07:25:00,28.0,20.2,29.91,West,280,6.7,22.8,72,0.00,,---,0.00,VWS V14.01,2013-05-13 11:25:00,
2013-05-13 07:30:00,28.0,20.2,29.91,WNW,292,17.4,19.7,72,0.00,,---,0.00,VWS V14.01,2013-05-13 11:30:00,
2013-05-13 07:40:00,28.0,20.2,29.91,West,261,3.6,13.4,72,0.00,,---,0.00,VWS V14.01,2013-05-13 11:40:00,
2013-05-13 07:50:00,28.2,20.4,29.91,West,277,10.3,12.1,72,0.00,,---,0.00,VWS V14.01,2013-05-13 11:50:00,
2013-05-13 07:55:00,28.2,20.4,29.91,West,270,0.0,10.3,72,0.00,,---,0.00,VWS V14.01,2013-05-13 11:55:00,
2013-05-13 08:05:00,28.4,20.5,29.91,WNW,288,1.8,5.8,72,0.00,,---,0.00,VWS V14.01,2013-05-13 12:05:00,
2013-05-13 08:15:00,28.8,20.9,29.94,West,277,5.4,9.8,72,0.00,,---,0.00,VWS V14.01,2013-05-13 12:15:00,
2013-05-13 08:20:00,28.6,20.7,29.94,West,278,13.4,16.6,72,0.00,,---,0.00,VWS V14.01,2013-05-13 12:20:00,
2013-05-13 08:30:00,28.8,20.9,29.94,SW,236,2.7,15.7,72,0.00,,---,0.00,VWS V14.01,2013-05-13 12:30:00,
2013-05-13 08:40:00,29.3,21.1,29.94,WNW,298,3.1,12.1,71,0.00,,---,0.00,VWS V14.01,2013-05-13 12:40:00,
2013-05-13 08:50:00,30.0,21.8,29.94,WNW,290,9.8,17.4,71,0.00,,---,0.00,VWS V14.01,2013-05-13 12:50:00,
2013-05-13 08:55:00,31.1,22.5,29.94,West,266,1.8,13.9,70,0.00,,---,0.00,VWS V14.01,2013-05-13 12:55:00,
2013-05-13 09:05:00,31.8,22.5,29.94,WSW,247,10.7,14.8,68,0.00,,---,0.00,VWS V14.01,2013-05-13 13:05:00,
2013-05-13 09:15:00,32.2,21.8,29.94,North,359,5.8,20.1,65,0.00,,---,0.00,VWS V14.01,2013-05-13 13:15:00,
2013-05-13 09:20:00,32.5,23.2,29.94,SW,218,0.4,15.2,68,0.00,,---,0.00,VWS V14.01,2013-05-13 13:20:00,
2013-05-13 09:25:00,32.7,22.3,29.94,NNW,336,12.1,15.2,65,0.00,,---,0.00,VWS V14.01,2013-05-13 13:25:00,
2013-05-13 09:30:00,32.7,22.3,29.94,NW,305,0.9,12.1,65,0.00,,---,0.00,VWS V14.01,2013-05-13 13:30:00,
2013-05-13 09:40:00,32.0,21.6,29.94,WSW,240,10.3,10.7,65,0.00,,---,0.00,VWS V14.01,2013-05-13 13:40:00,
2013-05-13 09:45:00,32.4,23.0,29.94,WSW,242,8.9,13.9,68,0.00,,---,0.00,VWS V14.01,2013-05-13 13:45:00,
2013-05-13 09:55:00,33.3,22.8,29.94,WSW,238,11.6,14.3,65,0.00,,---,0.00,VWS V14.01,2013-05-13 13:55:00,
2013-05-13 10:05:00,33.1,22.6,29.94,SW,233,5.4,17.0,65,0.00,,---,0.00,VWS V14.01,2013-05-13 14:05:00,
2013-05-13 10:10:00,32.5,21.4,29.94,WSW,256,4.5,18.8,63,0.00,,---,0.00,VWS V14.01,2013-05-13 14:10:00,
2013-05-13 10:20:00,32.4,21.9,29.94,WSW,257,9.4,17.4,65,0.00,,---,0.00,VWS V14.01,2013-05-13 14:20:00,
2013-05-13 10:30:00,32.0,20.9,29.94,WSW,239,7.6,18.3,63,0.00,,---,0.00,VWS V14.01,2013-05-13 14:30:00,
2013-05-13 10:35:00,31.6,21.2,29.94,SSW,205,6.3,17.4,65,0.00,,---,0.00,VWS V14.01,2013-05-13 14:35:00,
2013-05-13 10:45:00,31.8,21.4,29.97,WSW,247,1.8,11.6,65,0.00,,---,0.00,VWS V14.01,2013-05-13 14:45:00,
2013-05-13 10:55:00,32.2,21.8,29.97,West,271,10.7,14.3,65,0.00,,---,0.00,VWS V14.01,2013-05-13 14:55:00,
2013-05-13 11:00:00,32.4,21.2,29.97,WNW,300,5.8,13.4,63,0.00,,---,0.00,VWS V14.01,2013-05-13 15:00:00,
2013-05-13 11:10:00,32.7,21.5,29.97,NW,309,5.4,11.6,63,0.00,,---,0.00,VWS V14.01,2013-05-13 15:10:00,
2013-05-13 11:20:00,33.3,21.7,29.97,WNW,285,11.6,15.2,62,0.00,,---,0.00,VWS V14.01,2013-05-13 15:20:00,
2013-05-13 11:25:00,32.9,21.3,29.97,WNW,300,6.3,13.0,62,0.00,,---,0.00,VWS V14.01,2013-05-13 15:25:00,
2013-05-13 11:35:00,33.1,21.5,29.97,West,269,5.8,10.7,62,0.00,,---,0.00,VWS V14.01,2013-05-13 15:35:00,
2013-05-13 11:40:00,33.8,22.2,29.97,SW,221,2.7,8.9,62,0.00,,---,0.00,VWS V14.01,2013-05-13 15:40:00,
2013-05-13 11:45:00,33.8,22.2,29.97,WNW,284,4.5,16.1,62,0.00,,---,0.00,VWS V14.01,2013-05-13 15:45:00,
2013-05-13 11:50:00,33.8,22.2,29.97,West,277,4.5,19.2,62,0.00,,---,0.00,VWS V14.01,2013-05-13 15:50:00,
2013-05-13 12:00:00,34.5,22.9,29.97,West,277,5.4,16.1,62,0.00,,---,0.00,VWS V14.01,2013-05-13 16:00:00,
2013-05-13 12:10:00,35.6,23.9,29.97,SW,228,7.6,16.6,62,0.00,,---,0.00,VWS V14.01,2013-05-13 16:10:00,
2013-05-13 12:15:00,36.1,24.4,29.97,WSW,242,9.4,17.0,62,0.00,,---,0.00,VWS V14.01,2013-05-13 16:15:00,
2013-05-13 12:25:00,34.9,22.0,29.97,WNW,287,8.1,17.4,59,0.00,,---,0.00,VWS V14.01,2013-05-13 16:25:00,
2013-05-13 12:30:00,34.9,23.2,29.97,WSW,247,7.6,10.7,62,0.00,,---,0.00,VWS V14.01,2013-05-13 16:30:00,
2013-05-13 12:35:00,34.7,21.9,29.97,WNW,297,9.4,17.4,59,0.00,,---,0.00,VWS V14.01,2013-05-13 16:35:00,
2013-05-13 12:40:00,34.7,21.9,29.97,WSW,249,9.4,13.9,59,0.00,,---,0.00,VWS V14.01,2013-05-13 16:40:00,
2013-05-13 12:50:00,35.8,22.9,29.97,WNW,284,3.6,12.5,59,0.00,,---,0.00,VWS V14.01,2013-05-13 16:50:00,
2013-05-13 13:00:00,37.0,24.1,29.97,NW,312,5.8,15.7,59,0.00,,---,0.00,VWS V14.01,2013-05-13 17:00:00,
2013-05-13 13:05:00,36.7,23.7,29.97,NW,321,12.1,14.8,59,0.00,,---,0.00,VWS V14.01,2013-05-13 17:05:00,
2013-05-13 13:15:00,35.2,22.4,29.97,WNW,300,4.5,15.7,59,0.00,,---,0.00,VWS V14.01,2013-05-13 17:15:00,
2013-05-13 13:25:00,37.6,24.6,29.97,NW,321,6.3,12.5,59,0.00,,---,0.00,VWS V14.01,2013-05-13 17:25:00,
2013-05-13 13:30:00,36.7,23.7,29.97,WSW,256,13.9,20.1,59,0.00,,---,0.00,VWS V14.01,2013-05-13 17:30:00,
2013-05-13 13:40:00,35.2,22.4,29.97,WNW,300,9.4,20.1,59,0.00,,---,0.00,VWS V14.01,2013-05-13 17:40:00,
2013-05-13 13:50:00,34.5,22.9,29.97,WNW,298,12.5,17.4,62,0.00,,---,0.00,VWS V14.01,2013-05-13 17:50:00,
2013-05-13 13:55:00,35.4,23.7,29.97,NW,319,3.1,13.4,62,0.00,,---,0.00,VWS V14.01,2013-05-13 17:55:00,
2013-05-13 14:00:00,38.3,26.0,29.97,NW,319,4.5,7.6,61,0.00,,---,0.00,VWS V14.01,2013-05-13 18:00:00,
2013-05-13 14:05:00,39.0,25.9,29.97,NNW,329,6.3,14.8,59,0.00,,---,0.00,VWS V14.01,2013-05-13 18:05:00,
2013-05-13 14:10:00,37.6,24.6,29.97,West,264,10.7,21.9,59,0.00,,---,0.00,VWS V14.01,2013-05-13 18:10:00,
2013-05-13 14:20:00,36.3,23.4,29.97,WNW,297,9.4,15.2,59,0.00,,---,0.00,VWS V14.01,2013-05-13 18:20:00,
2013-05-13 14:30:00,36.0,23.0,29.97,NW,321,15.2,17.4,59,0.00,,---,0.00,VWS V14.01,2013-05-13 18:30:00,
2013-05-13 14:35:00,36.3,23.4,29.97,WNW,301,5.8,16.1,59,0.00,,---,0.00,VWS V14.01,2013-05-13 18:35:00,
2013-05-13 14:45:00,37.8,24.7,29.97,NNW,339,6.7,13.0,59,0.00,,---,0.00,VWS V14.01,2013-05-13 18:45:00,
2013-05-13 14:55:00,37.8,24.7,29.97,WNW,283,11.2,16.6,59,0.00,,---,0.00,VWS V14.01,2013-05-13 18:55:00,
2013-05-13 15:00:00,36.5,23.5,29.97,NW,305,9.4,17.9,59,0.00,,---,0.00,VWS V14.01,2013-05-13 19:00:00,
2013-05-13 15:10:00,35.8,22.9,29.97,NNW,332,12.5,12.5,59,0.00,,---,0.00,VWS V14.01,2013-05-13 19:10:00,
2013-05-13 15:20:00,37.8,24.7,29.97,West,259,8.5,9.4,59,0.00,,---,0.00,VWS V14.01,2013-05-13 19:20:00,
2013-05-13 15:25:00,39.4,26.3,29.97,WNW,295,9.4,10.7,59,0.00,,---,0.00,VWS V14.01,2013-05-13 19:25:00,
2013-05-13 15:30:00,40.3,26.7,29.97,WSW,256,0.0,9.8,58,0.00,,---,0.00,VWS V14.01,2013-05-13 19:30:00,
2013-05-13 15:35:00,39.7,26.6,29.97,North,349,7.2,9.8,59,0.00,,---,0.00,VWS V14.01,2013-05-13 19:35:00,
2013-05-13 15:40:00,37.2,24.2,29.97,NE,38,13.0,18.8,59,0.00,,---,0.00,VWS V14.01,2013-05-13 19:40:00,
2013-05-13 15:45:00,35.4,23.7,29.97,NNE,18,15.2,22.8,62,0.00,,---,0.00,VWS V14.01,2013-05-13 19:45:00,
2013-05-13 15:50:00,34.5,22.9,29.97,North,11,10.7,16.6,62,0.00,,---,0.00,VWS V14.01,2013-05-13 19:50:00,
2013-05-13 16:00:00,35.1,24.1,29.97,North,359,4.9,8.9,64,0.00,,---,0.00,VWS V14.01,2013-05-13 20:00:00,
2013-05-13 16:05:00,36.1,24.4,29.97,NW,308,6.3,7.6,62,0.00,,---,0.00,VWS V14.01,2013-05-13 20:05:00,
2013-05-13 16:15:00,38.5,26.2,29.97,NNW,346,4.9,11.2,61,0.00,,---,0.00,VWS V14.01,2013-05-13 20:15:00,
2013-05-13 16:25:00,38.3,25.2,29.97,WNW,290,16.1,18.3,59,0.00,,---,0.00,VWS V14.01,2013-05-13 20:25:00,
2013-05-13 16:30:00,36.7,24.9,29.97,North,356,13.9,18.3,62,0.00,,---,0.00,VWS V14.01,2013-05-13 20:30:00,
2013-05-13 16:40:00,36.1,25.1,29.97,NE,40,4.0,8.1,64,0.00,,---,0.00,VWS V14.01,2013-05-13 20:40:00,
2013-05-13 16:50:00,35.8,26.6,29.97,NNE,29,0.0,6.7,69,0.00,,---,0.00,VWS V14.01,2013-05-13 20:50:00,
2013-05-13 16:55:00,35.6,24.6,29.97,WSW,250,6.3,9.4,64,0.00,,---,0.00,VWS V14.01,2013-05-13 20:55:00,
2013-05-13 17:00:00,36.0,24.2,29.97,WNW,302,5.4,12.5,62,0.00,,---,0.00,VWS V14.01,2013-05-13 21:00:00,
2013-05-13 17:05:00,36.3,25.3,29.97,NNE,23,9.4,14.8,64,0.00,,---,0.00,VWS V14.01,2013-05-13 21:05:00,
2013-05-13 17:15:00,35.4,26.6,29.97,NE,39,3.1,8.1,70,0.00,,---,0.00,VWS V14.01,2013-05-13 21:15:00,
2013-05-13 17:20:00,36.1,27.3,29.97,NNE,23,3.1,7.2,70,0.00,,---,0.00,VWS V14.01,2013-05-13 21:20:00,
2013-05-13 17:30:00,37.2,25.4,29.97,NNE,15,4.9,10.3,62,0.00,,---,0.00,VWS V14.01,2013-05-13 21:30:00,
2013-05-13 17:35:00,36.9,25.8,29.97,NE,36,6.7,10.3,64,0.00,,---,0.00,VWS V14.01,2013-05-13 21:35:00,
2013-05-13 17:45:00,36.9,26.9,29.97,NE,49,0.9,2.7,67,0.00,,---,0.00,VWS V14.01,2013-05-13 21:45:00,
2013-05-13 17:55:00,36.1,26.3,29.97,West,270,2.2,5.8,67,0.00,,---,0.00,VWS V14.01,2013-05-13 21:55:00,
2013-05-13 18:00:00,36.3,25.3,29.97,WNW,288,3.6,4.5,64,0.00,,---,0.00,VWS V14.01,2013-05-13 22:00:00,
2013-05-13 18:05:00,35.6,23.9,29.97,SW,219,5.8,16.6,62,0.00,,---,0.00,VWS V14.01,2013-05-13 22:05:00,
2013-05-13 18:10:00,34.3,24.5,29.97,North,359,8.9,13.9,67,0.00,,---,0.00,VWS V14.01,2013-05-13 22:10:00,
2013-05-13 18:15:00,33.8,25.1,29.97,NNE,12,4.5,8.9,70,0.00,,---,0.00,VWS V14.01,2013-05-13 22:15:00,
2013-05-13 18:25:00,34.2,28.3,29.97,NNE,12,0.0,0.0,79,0.00,,---,0.00,VWS V14.01,2013-05-13 22:25:00,
2013-05-13 18:35:00,34.2,26.4,29.97,NNE,12,0.0,0.0,73,0.00,,---,0.00,VWS V14.01,2013-05-13 22:35:00,
2013-05-13 18:40:00,33.8,26.4,29.97,NNE,12,0.0,0.0,74,0.00,,---,0.00,VWS V14.01,2013-05-13 22:40:00,
2013-05-13 18:50:00,33.8,27.7,29.97,NNE,12,0.0,0.0,78,0.00,,---,0.00,VWS V14.01,2013-05-13 22:50:00,
2013-05-13 18:55:00,33.6,26.9,29.97,NNE,14,0.0,0.0,76,0.00,,---,0.00,VWS V14.01,2013-05-13 22:55:00,
2013-05-13 19:05:00,33.6,26.9,30.00,SE,140,3.1,5.4,76,0.00,,---,0.00,VWS V14.01,2013-05-13 23:05:00,
2013-05-13 19:15:00,33.8,26.7,29.97,SE,140,0.0,0.0,75,0.00,,---,0.00,VWS V14.01,2013-05-13 23:15:00,
2013-05-13 19:20:00,34.0,28.2,29.97,SE,140,0.0,0.0,79,0.00,,---,0.00,VWS V14.01,2013-05-13 23:20:00,
2013-05-13 19:30:00,33.8,25.4,30.00,WSW,257,0.0,4.5,71,0.00,,---,0.00,VWS V14.01,2013-05-13 23:30:00,
2013-05-13 19:40:00,33.8,25.1,30.00,WNW,288,0.0,4.9,70,0.00,,---,0.00,VWS V14.01,2013-05-13 23:40:00,
2013-05-13 19:45:00,33.3,24.9,29.97,WNW,294,3.1,5.4,71,0.00,,---,0.00,VWS V14.01,2013-05-13 23:45:00,
2013-05-13 19:55:00,31.5,24.1,29.97,WNW,294,0.0,4.0,74,0.00,,---,0.00,VWS V14.01,2013-05-13 23:55:00,
2013-05-13 20:00:00,32.4,24.0,30.00,WSW,252,0.0,5.8,71,0.00,,---,0.00,VWS V14.01,2013-05-14 00:00:00,
2013-05-13 20:05:00,32.4,24.0,30.00,West,266,0.9,4.9,71,0.00,,---,0.00,VWS V14.01,2013-05-14 00:05:00,
2013-05-13 20:10:00,31.8,23.8,30.00,West,266,0.0,3.6,72,0.00,,---,0.00,VWS V14.01,2013-05-14 00:10:00,
2013-05-13 20:20:00,30.9,23.6,30.00,West,266,0.0,4.5,74,0.00,,---,0.00,VWS V14.01,2013-05-14 00:20:00,
2013-05-13 20:25:00,30.2,24.2,30.00,West,266,0.0,2.2,78,0.00,,---,0.00,VWS V14.01,2013-05-14 00:25:00,
2013-05-13 20:30:00,30.4,24.7,30.00,West,266,0.0,0.0,79,0.00,,---,0.00,VWS V14.01,2013-05-14 00:30:00,
2013-05-13 20:35:00,30.6,25.1,30.00,West,266,0.0,0.0,80,0.00,,---,0.00,VWS V14.01,2013-05-14 00:35:00,
2013-05-13 20:45:00,32.2,25.8,30.00,North,359,1.8,7.2,77,0.00,,---,0.00,VWS V14.01,2013-05-14 00:45:00,
2013-05-13 20:50:00,32.4,26.3,30.00,North,359,3.1,3.1,78,0.00,,---,0.00,VWS V14.01,2013-05-14 00:50:00,
2013-05-13 21:00:00,32.0,26.5,30.00,North,359,3.1,3.6,80,0.00,,---,0.00,VWS V14.01,2013-05-14 01:00:00,
2013-05-13 21:10:00,33.3,25.2,30.00,NW,304,0.0,0.0,72,0.00,,---,0.00,VWS V14.01,2013-05-14 01:10:00,
2013-05-13 21:15:00,32.9,25.9,30.00,NW,305,0.0,0.0,75,0.00,,---,0.00,VWS V14.01,2013-05-14 01:15:00,
2013-05-13 21:25:00,31.8,27.0,30.00,NW,305,0.0,3.1,82,0.00,,---,0.00,VWS V14.01,2013-05-14 01:25:00,
2013-05-13 21:30:00,30.9,26.4,30.00,NW,305,0.0,0.0,83,0.00,,---,0.00,VWS V14.01,2013-05-14 01:30:00,
2013-05-13 21:35:00,30.9,26.4,30.00,NW,304,0.0,2.2,83,0.00,,---,0.00,VWS V14.01,2013-05-14 01:35:00,
2013-05-13 21:40:00,30.7,26.2,30.00,NW,305,0.0,0.0,83,0.00,,---,0.00,VWS V14.01,2013-05-14 01:40:00,
2013-05-13 21:45:00,31.3,26.1,30.00,WNW,283,0.0,3.1,81,0.00,,---,0.00,VWS V14.01,2013-05-14 01:45:00,
2013-05-13 21:55:00,30.6,25.4,30.00,South,190,0.0,0.0,81,0.00,,---,0.00,VWS V14.01,2013-05-14 01:55:00,
2013-05-13 22:05:00,28.6,23.8,30.03,South,191,0.0,0.0,82,0.00,,---,0.00,VWS V14.01,2013-05-14 02:05:00,
2013-05-13 22:10:00,28.4,23.9,30.03,South,191,1.8,1.8,83,0.00,,---,0.00,VWS V14.01,2013-05-14 02:10:00,
2013-05-13 22:20:00,29.8,24.7,30.03,WNW,283,0.0,4.5,81,0.00,,---,0.00,VWS V14.01,2013-05-14 02:20:00,
2013-05-13 22:30:00,28.8,23.7,30.03,WNW,284,2.2,2.2,81,0.00,,---,0.00,VWS V14.01,2013-05-14 02:30:00,
2013-05-13 22:35:00,29.8,23.8,30.03,WNW,284,0.0,2.2,78,0.00,,---,0.00,VWS V14.01,2013-05-14 02:35:00,
2013-05-13 22:45:00,29.5,23.5,30.03,WNW,300,0.0,4.0,78,0.00,,---,0.00,VWS V14.01,2013-05-14 02:45:00,
2013-05-13 22:50:00,29.5,23.5,30.03,WNW,300,0.0,3.6,78,0.00,,---,0.00,VWS V14.01,2013-05-14 02:50:00,
2013-05-13 23:00:00,30.6,23.9,30.03,WNW,300,0.4,4.0,76,0.00,,---,0.00,VWS V14.01,2013-05-14 03:00:00,
2013-05-13 23:10:00,31.3,23.6,30.03,West,277,0.0,3.1,73,0.00,,---,0.00,VWS V14.01,2013-05-14 03:10:00,
2013-05-13 23:15:00,31.3,24.0,30.03,West,277,0.0,0.0,74,0.00,,---,0.00,VWS V14.01,2013-05-14 03:15:00,
2013-05-13 23:25:00,31.3,23.6,30.03,WSW,254,0.0,5.8,73,0.00,,---,0.00,VWS V14.01,2013-05-14 03:25:00,
2013-05-13 23:35:00,31.6,23.7,30.03,NW,308,2.2,7.2,72,0.00,,---,0.00,VWS V14.01,2013-05-14 03:35:00,
2013-05-13 23:40:00,31.6,23.7,30.03,WNW,295,3.6,5.4,72,0.00,,---,0.00,VWS V14.01,2013-05-14 03:40:00,
2013-05-13 23:50:00,31.3,23.3,30.03,WNW,298,1.8,4.9,72,0.00,,---,0.00,VWS V14.01,2013-05-14 03:50:00,
2013-05-13 23:55:00,30.7,23.1,30.03,WNW,298,0.0,2.2,73,0.00,,---,0.00,VWS V14.01,2013-05-14 03:55:00,